sensor_id;sensor_type;location;lat;lon;timestamp;P1;durP1;ratioP1;P2;durP2;ratioP2
8042;SDS011;4064;48.132;11.366;2023-04-03T00:01:01;15.18;;;9.30;;
8042;SDS011;4064;48.132;11.366;2023-04-03T00:03:28;14.63;;;11.35;;
8042;SDS011;4064;48.132;11.366;2023-04-03T00:05:54;11.35;;;10.23;;
8042;SDS011;4064;48.132;11.366;2023-04-03T00:08:20;13.27;;;11.93;;
8042;SDS011;4064;48.132;11.366;2023-04-03T00:10:46;10.33;;;9.23;;
8042;SDS011;4064;48.132;11.366;2023-04-03T00:13:13;10.85;;;9.75;;
8042;SDS011;4064;48.132;11.366;2023-04-03T00:15:39;10.07;;;9.07;;
8042;SDS011;4064;48.132;11.366;2023-04-03T00:18:06;10.65;;;9.65;;
8042;SDS011;4064;48.132;11.366;2023-04-03T00:20:32;12.98;;;10.60;;
8042;SDS011;4064;48.132;11.366;2023-04-03T00:22:58;13.45;;;9.60;;
8042;SDS011;4064;48.132;11.366;2023-04-03T00:25:26;13.80;;;9.43;;
8042;SDS011;4064;48.132;11.366;2023-04-03T00:27:52;11.23;;;8.98;;
8042;SDS011;4064;48.132;11.366;2023-04-03T00:30:19;10.60;;;9.50;;
8042;SDS011;4064;48.132;11.366;2023-04-03T00:32:47;11.20;;;9.32;;
8042;SDS011;4064;48.132;11.366;2023-04-03T00:35:13;9.52;;;8.63;;
8042;SDS011;4064;48.132;11.366;2023-04-03T00:37:41;10.23;;;8.43;;
8042;SDS011;4064;48.132;11.366;2023-04-03T00:40:07;9.73;;;8.70;;
8042;SDS011;4064;48.132;11.366;2023-04-03T00:42:37;9.60;;;8.57;;
8042;SDS011;4064;48.132;11.366;2023-04-03T00:47:30;10.90;;;9.30;;
8042;SDS011;4064;48.132;11.366;2023-04-03T00:49:56;9.50;;;8.50;;
8042;SDS011;4064;48.132;11.366;2023-04-03T00:52:25;9.55;;;8.65;;
8042;SDS011;4064;48.132;11.366;2023-04-03T00:54:54;7.97;;;7.10;;
8042;SDS011;4064;48.132;11.366;2023-04-03T00:57:26;11.32;;;9.20;;
8042;SDS011;4064;48.132;11.366;2023-04-03T00:59:56;10.05;;;9.07;;
8042;SDS011;4064;48.132;11.366;2023-04-03T01:02:27;10.90;;;9.73;;
8042;SDS011;4064;48.132;11.366;2023-04-03T01:04:53;7.97;;;7.27;;
8042;SDS011;4064;48.132;11.366;2023-04-03T01:07:28;10.88;;;9.43;;
8042;SDS011;4064;48.132;11.366;2023-04-03T01:09:56;10.57;;;8.50;;
8042;SDS011;4064;48.132;11.366;2023-04-03T01:12:32;10.90;;;9.30;;
8042;SDS011;4064;48.132;11.366;2023-04-03T01:25:52;8.32;;;7.53;;
8042;SDS011;4064;48.132;11.366;2023-04-03T01:28:22;10.48;;;8.65;;
8042;SDS011;4064;48.132;11.366;2023-04-03T01:30:50;9.65;;;8.65;;
8042;SDS011;4064;48.132;11.366;2023-04-03T01:33:35;10.25;;;9.18;;
8042;SDS011;4064;48.132;11.366;2023-04-03T01:36:03;9.23;;;8.23;;
8042;SDS011;4064;48.132;11.366;2023-04-03T01:38:31;9.43;;;8.57;;
8042;SDS011;4064;48.132;11.366;2023-04-03T01:40:57;12.17;;;8.40;;
8042;SDS011;4064;48.132;11.366;2023-04-03T01:43:22;9.73;;;8.67;;
8042;SDS011;4064;48.132;11.366;2023-04-03T01:45:49;9.38;;;8.48;;
8042;SDS011;4064;48.132;11.366;2023-04-03T01:48:15;10.32;;;9.07;;
8042;SDS011;4064;48.132;11.366;2023-04-03T01:50:41;9.95;;;7.90;;
8042;SDS011;4064;48.132;11.366;2023-04-03T01:53:07;9.20;;;8.40;;
8042;SDS011;4064;48.132;11.366;2023-04-03T01:55:33;12.30;;;7.20;;
8042;SDS011;4064;48.132;11.366;2023-04-03T01:57:59;8.88;;;7.82;;
8042;SDS011;4064;48.132;11.366;2023-04-03T02:00:25;8.30;;;7.50;;
8042;SDS011;4064;48.132;11.366;2023-04-03T02:02:51;8.63;;;7.55;;
8042;SDS011;4064;48.132;11.366;2023-04-03T02:05:18;8.70;;;7.90;;
8042;SDS011;4064;48.132;11.366;2023-04-03T02:07:44;9.35;;;8.32;;
8042;SDS011;4064;48.132;11.366;2023-04-03T02:10:12;11.50;;;7.38;;
8042;SDS011;4064;48.132;11.366;2023-04-03T02:12:38;11.57;;;8.05;;
8042;SDS011;4064;48.132;11.366;2023-04-03T02:15:04;8.13;;;7.33;;
8042;SDS011;4064;48.132;11.366;2023-04-03T02:17:30;9.18;;;7.43;;
8042;SDS011;4064;48.132;11.366;2023-04-03T02:19:56;9.55;;;7.22;;
8042;SDS011;4064;48.132;11.366;2023-04-03T02:22:22;8.13;;;7.32;;
8042;SDS011;4064;48.132;11.366;2023-04-03T02:24:48;7.80;;;7.00;;
8042;SDS011;4064;48.132;11.366;2023-04-03T02:27:14;9.25;;;8.30;;
8042;SDS011;4064;48.132;11.366;2023-04-03T02:29:40;8.35;;;7.65;;
8042;SDS011;4064;48.132;11.366;2023-04-03T02:32:06;8.20;;;7.40;;
8042;SDS011;4064;48.132;11.366;2023-04-03T02:34:32;8.07;;;7.37;;
8042;SDS011;4064;48.132;11.366;2023-04-03T02:36:58;11.13;;;8.07;;
8042;SDS011;4064;48.132;11.366;2023-04-03T02:39:24;8.82;;;7.97;;
8042;SDS011;4064;48.132;11.366;2023-04-03T02:41:50;9.00;;;8.20;;
8042;SDS011;4064;48.132;11.366;2023-04-03T02:44:16;8.73;;;7.07;;
8042;SDS011;4064;48.132;11.366;2023-04-03T02:46:42;9.07;;;7.97;;
8042;SDS011;4064;48.132;11.366;2023-04-03T02:49:08;9.27;;;8.23;;
8042;SDS011;4064;48.132;11.366;2023-04-03T02:51:34;7.30;;;6.60;;
8042;SDS011;4064;48.132;11.366;2023-04-03T02:53:59;8.07;;;7.27;;
8042;SDS011;4064;48.132;11.366;2023-04-03T02:56:26;7.90;;;7.15;;
8042;SDS011;4064;48.132;11.366;2023-04-03T02:58:52;7.93;;;7.22;;
8042;SDS011;4064;48.132;11.366;2023-04-03T03:01:18;8.77;;;6.97;;
8042;SDS011;4064;48.132;11.366;2023-04-03T03:03:44;7.73;;;7.00;;
8042;SDS011;4064;48.132;11.366;2023-04-03T03:06:11;10.65;;;6.93;;
8042;SDS011;4064;48.132;11.366;2023-04-03T03:08:39;6.50;;;5.90;;
8042;SDS011;4064;48.132;11.366;2023-04-03T03:11:06;8.23;;;6.43;;
8042;SDS011;4064;48.132;11.366;2023-04-03T03:13:32;6.33;;;5.80;;
8042;SDS011;4064;48.132;11.366;2023-04-03T03:15:58;7.50;;;6.10;;
8042;SDS011;4064;48.132;11.366;2023-04-03T03:18:24;6.50;;;5.90;;
8042;SDS011;4064;48.132;11.366;2023-04-03T03:20:53;7.72;;;6.22;;
8042;SDS011;4064;48.132;11.366;2023-04-03T03:23:24;7.38;;;6.28;;
8042;SDS011;4064;48.132;11.366;2023-04-03T03:25:54;6.70;;;6.10;;
8042;SDS011;4064;48.132;11.366;2023-04-03T03:28:25;7.75;;;6.45;;
8042;SDS011;4064;48.132;11.366;2023-04-03T03:30:51;5.95;;;5.43;;
8042;SDS011;4064;48.132;11.366;2023-04-03T03:33:18;8.18;;;6.40;;
8042;SDS011;4064;48.132;11.366;2023-04-03T03:35:44;7.15;;;5.80;;
8042;SDS011;4064;48.132;11.366;2023-04-03T03:38:11;7.90;;;6.22;;
8042;SDS011;4064;48.132;11.366;2023-04-03T03:40:38;6.82;;;5.15;;
8042;SDS011;4064;48.132;11.366;2023-04-03T03:43:04;9.30;;;5.88;;
8042;SDS011;4064;48.132;11.366;2023-04-03T03:45:35;7.18;;;5.63;;
8042;SDS011;4064;48.132;11.366;2023-04-03T03:48:10;6.70;;;6.10;;
8042;SDS011;4064;48.132;11.366;2023-04-03T03:50:36;7.15;;;5.57;;
8042;SDS011;4064;48.132;11.366;2023-04-03T03:53:03;5.85;;;5.45;;
8042;SDS011;4064;48.132;11.366;2023-04-03T03:55:29;5.87;;;5.37;;
8042;SDS011;4064;48.132;11.366;2023-04-03T03:57:55;5.90;;;5.40;;
8042;SDS011;4064;48.132;11.366;2023-04-03T04:00:21;6.17;;;5.50;;
8042;SDS011;4064;48.132;11.366;2023-04-03T04:02:47;6.38;;;5.78;;
8042;SDS011;4064;48.132;11.366;2023-04-03T04:05:13;7.23;;;6.47;;
8042;SDS011;4064;48.132;11.366;2023-04-03T04:07:39;6.78;;;6.15;;
8042;SDS011;4064;48.132;11.366;2023-04-03T04:10:07;5.50;;;5.00;;
8042;SDS011;4064;48.132;11.366;2023-04-03T04:12:33;6.32;;;5.72;;
8042;SDS011;4064;48.132;11.366;2023-04-03T04:15:00;6.65;;;6.05;;
8042;SDS011;4064;48.132;11.366;2023-04-03T04:17:27;6.75;;;6.15;;
8042;SDS011;4064;48.132;11.366;2023-04-03T04:19:52;6.37;;;5.77;;
8042;SDS011;4064;48.132;11.366;2023-04-03T04:22:19;5.85;;;5.30;;
8042;SDS011;4064;48.132;11.366;2023-04-03T04:24:45;7.33;;;6.70;;
8042;SDS011;4064;48.132;11.366;2023-04-03T04:27:10;6.73;;;6.13;;
8042;SDS011;4064;48.132;11.366;2023-04-03T04:29:36;8.50;;;5.90;;
8042;SDS011;4064;48.132;11.366;2023-04-03T04:32:03;6.00;;;5.40;;
8042;SDS011;4064;48.132;11.366;2023-04-03T04:34:29;6.63;;;6.10;;
8042;SDS011;4064;48.132;11.366;2023-04-03T04:36:56;7.35;;;5.32;;
8042;SDS011;4064;48.132;11.366;2023-04-03T04:39:22;5.63;;;5.15;;
8042;SDS011;4064;48.132;11.366;2023-04-03T04:41:49;6.47;;;5.90;;
8042;SDS011;4064;48.132;11.366;2023-04-03T04:44:14;6.17;;;5.67;;
8042;SDS011;4064;48.132;11.366;2023-04-03T04:46:40;7.35;;;6.50;;
8042;SDS011;4064;48.132;11.366;2023-04-03T04:49:06;6.33;;;5.70;;
8042;SDS011;4064;48.132;11.366;2023-04-03T04:51:32;5.83;;;5.13;;
8042;SDS011;4064;48.132;11.366;2023-04-03T04:53:57;5.60;;;5.10;;
8042;SDS011;4064;48.132;11.366;2023-04-03T04:56:23;6.67;;;5.13;;
8042;SDS011;4064;48.132;11.366;2023-04-03T04:58:50;6.38;;;5.70;;
8042;SDS011;4064;48.132;11.366;2023-04-03T05:01:16;5.87;;;5.37;;
8042;SDS011;4064;48.132;11.366;2023-04-03T05:03:42;6.05;;;5.45;;
8042;SDS011;4064;48.132;11.366;2023-04-03T05:06:07;6.47;;;5.87;;
8042;SDS011;4064;48.132;11.366;2023-04-03T05:08:33;7.03;;;5.97;;
8042;SDS011;4064;48.132;11.366;2023-04-03T05:10:59;6.95;;;6.00;;
8042;SDS011;4064;48.132;11.366;2023-04-03T05:13:25;6.03;;;5.53;;
8042;SDS011;4064;48.132;11.366;2023-04-03T05:15:51;7.23;;;6.53;;
8042;SDS011;4064;48.132;11.366;2023-04-03T05:18:16;8.37;;;5.87;;
8042;SDS011;4064;48.132;11.366;2023-04-03T05:20:42;6.80;;;6.10;;
8042;SDS011;4064;48.132;11.366;2023-04-03T05:23:09;6.13;;;5.23;;
8042;SDS011;4064;48.132;11.366;2023-04-03T05:25:37;5.95;;;5.35;;
8042;SDS011;4064;48.132;11.366;2023-04-03T05:28:04;5.93;;;5.43;;
8042;SDS011;4064;48.132;11.366;2023-04-03T05:30:30;6.90;;;6.30;;
8042;SDS011;4064;48.132;11.366;2023-04-03T05:32:56;6.50;;;5.90;;
8042;SDS011;4064;48.132;11.366;2023-04-03T05:35:22;6.90;;;5.90;;
8042;SDS011;4064;48.132;11.366;2023-04-03T05:37:48;6.87;;;6.27;;
8042;SDS011;4064;48.132;11.366;2023-04-03T05:40:14;7.00;;;6.40;;
8042;SDS011;4064;48.132;11.366;2023-04-03T05:42:40;6.20;;;5.60;;
8042;SDS011;4064;48.132;11.366;2023-04-03T05:45:05;6.47;;;5.80;;
8042;SDS011;4064;48.132;11.366;2023-04-03T05:47:32;7.30;;;6.50;;
8042;SDS011;4064;48.132;11.366;2023-04-03T05:49:58;8.00;;;5.90;;
8042;SDS011;4064;48.132;11.366;2023-04-03T05:52:32;7.03;;;5.75;;
8042;SDS011;4064;48.132;11.366;2023-04-03T05:55:01;6.40;;;5.53;;
8042;SDS011;4064;48.132;11.366;2023-04-03T05:57:27;6.72;;;6.13;;
8042;SDS011;4064;48.132;11.366;2023-04-03T05:59:53;8.83;;;6.50;;
8042;SDS011;4064;48.132;11.366;2023-04-03T06:02:20;14.50;;;7.47;;
8042;SDS011;4064;48.132;11.366;2023-04-03T06:04:47;7.07;;;6.38;;
8042;SDS011;4064;48.132;11.366;2023-04-03T06:07:16;6.93;;;6.28;;
8042;SDS011;4064;48.132;11.366;2023-04-03T06:09:46;7.88;;;7.07;;
8042;SDS011;4064;48.132;11.366;2023-04-03T06:12:13;6.10;;;5.65;;
8042;SDS011;4064;48.132;11.366;2023-04-03T06:14:39;9.40;;;6.35;;
8042;SDS011;4064;48.132;11.366;2023-04-03T06:17:06;6.95;;;6.28;;
8042;SDS011;4064;48.132;11.366;2023-04-03T06:19:33;5.88;;;5.10;;
8042;SDS011;4064;48.132;11.366;2023-04-03T06:22:00;10.15;;;6.35;;
8042;SDS011;4064;48.132;11.366;2023-04-03T06:24:25;6.53;;;5.80;;
8042;SDS011;4064;48.132;11.366;2023-04-03T06:26:52;7.55;;;6.03;;
8042;SDS011;4064;48.132;11.366;2023-04-03T06:29:18;7.10;;;6.20;;
8042;SDS011;4064;48.132;11.366;2023-04-03T06:31:44;6.75;;;5.85;;
8042;SDS011;4064;48.132;11.366;2023-04-03T06:34:11;8.07;;;7.22;;
8042;SDS011;4064;48.132;11.366;2023-04-03T06:36:38;6.43;;;5.82;;
8042;SDS011;4064;48.132;11.366;2023-04-03T06:39:05;6.25;;;5.65;;
8042;SDS011;4064;48.132;11.366;2023-04-03T06:41:32;6.25;;;5.65;;
8042;SDS011;4064;48.132;11.366;2023-04-03T06:43:58;6.28;;;5.63;;
8042;SDS011;4064;48.132;11.366;2023-04-03T06:46:25;6.20;;;5.60;;
8042;SDS011;4064;48.132;11.366;2023-04-03T06:48:51;6.75;;;6.05;;
8042;SDS011;4064;48.132;11.366;2023-04-03T06:51:18;7.78;;;6.80;;
8042;SDS011;4064;48.132;11.366;2023-04-03T06:53:53;8.35;;;6.15;;
8042;SDS011;4064;48.132;11.366;2023-04-03T06:56:20;6.82;;;5.93;;
8042;SDS011;4064;48.132;11.366;2023-04-03T06:58:47;6.88;;;5.90;;
8042;SDS011;4064;48.132;11.366;2023-04-03T07:01:14;7.55;;;5.75;;
8042;SDS011;4064;48.132;11.366;2023-04-03T07:03:43;8.43;;;5.88;;
8042;SDS011;4064;48.132;11.366;2023-04-03T07:06:12;5.90;;;5.40;;
8042;SDS011;4064;48.132;11.366;2023-04-03T07:08:40;6.97;;;6.07;;
8042;SDS011;4064;48.132;11.366;2023-04-03T07:11:07;8.95;;;5.80;;
8042;SDS011;4064;48.132;11.366;2023-04-03T07:13:33;6.70;;;6.10;;
8042;SDS011;4064;48.132;11.366;2023-04-03T07:15:59;7.25;;;6.55;;
8042;SDS011;4064;48.132;11.366;2023-04-03T07:18:26;7.28;;;5.80;;
8042;SDS011;4064;48.132;11.366;2023-04-03T07:20:52;6.57;;;5.97;;
8042;SDS011;4064;48.132;11.366;2023-04-03T07:23:18;8.47;;;6.60;;
8042;SDS011;4064;48.132;11.366;2023-04-03T07:25:45;6.90;;;6.15;;
8042;SDS011;4064;48.132;11.366;2023-04-03T07:28:11;8.88;;;6.00;;
8042;SDS011;4064;48.132;11.366;2023-04-03T07:30:42;7.38;;;5.63;;
8042;SDS011;4064;48.132;11.366;2023-04-03T07:33:13;5.45;;;4.95;;
8042;SDS011;4064;48.132;11.366;2023-04-03T07:35:40;5.53;;;5.03;;
8042;SDS011;4064;48.132;11.366;2023-04-03T07:38:07;7.30;;;6.32;;
8042;SDS011;4064;48.132;11.366;2023-04-03T07:40:34;8.38;;;5.80;;
8042;SDS011;4064;48.132;11.366;2023-04-03T07:43:01;5.60;;;5.10;;
8042;SDS011;4064;48.132;11.366;2023-04-03T07:45:27;5.88;;;5.38;;
8042;SDS011;4064;48.132;11.366;2023-04-03T07:47:53;6.47;;;5.22;;
8042;SDS011;4064;48.132;11.366;2023-04-03T07:50:19;5.93;;;5.33;;
8042;SDS011;4064;48.132;11.366;2023-04-03T07:52:45;10.30;;;5.90;;
8042;SDS011;4064;48.132;11.366;2023-04-03T07:55:11;6.45;;;5.85;;
8042;SDS011;4064;48.132;11.366;2023-04-03T07:57:37;6.67;;;6.00;;
8042;SDS011;4064;48.132;11.366;2023-04-03T08:00:03;9.83;;;5.97;;
8042;SDS011;4064;48.132;11.366;2023-04-03T08:02:30;6.97;;;6.25;;
8042;SDS011;4064;48.132;11.366;2023-04-03T08:04:57;7.45;;;5.50;;
8042;SDS011;4064;48.132;11.366;2023-04-03T08:07:24;6.05;;;5.43;;
8042;SDS011;4064;48.132;11.366;2023-04-03T08:09:51;7.13;;;5.75;;
8042;SDS011;4064;48.132;11.366;2023-04-03T08:12:16;9.02;;;6.70;;
8042;SDS011;4064;48.132;11.366;2023-04-03T08:14:42;7.50;;;6.80;;
8042;SDS011;4064;48.132;11.366;2023-04-03T08:17:08;6.67;;;6.07;;
8042;SDS011;4064;48.132;11.366;2023-04-03T08:19:39;6.97;;;6.07;;
8042;SDS011;4064;48.132;11.366;2023-04-03T08:22:06;7.38;;;6.25;;
8042;SDS011;4064;48.132;11.366;2023-04-03T08:24:35;8.52;;;6.10;;
8042;SDS011;4064;48.132;11.366;2023-04-03T08:27:00;9.65;;;6.88;;
8042;SDS011;4064;48.132;11.366;2023-04-03T08:29:27;6.13;;;5.53;;
8042;SDS011;4064;48.132;11.366;2023-04-03T08:31:54;6.43;;;5.75;;
8042;SDS011;4064;48.132;11.366;2023-04-03T08:34:20;5.87;;;5.37;;
8042;SDS011;4064;48.132;11.366;2023-04-03T08:36:47;8.73;;;7.47;;
8042;SDS011;4064;48.132;11.366;2023-04-03T08:39:13;6.53;;;5.93;;
8042;SDS011;4064;48.132;11.366;2023-04-03T08:41:40;6.47;;;5.87;;
8042;SDS011;4064;48.132;11.366;2023-04-03T08:49:47;6.43;;;5.80;;
8042;SDS011;4064;48.132;11.366;2023-04-03T08:52:38;9.70;;;6.50;;
8042;SDS011;4064;48.132;11.366;2023-04-03T09:01:19;6.97;;;6.28;;
8042;SDS011;4064;48.132;11.366;2023-04-03T09:03:50;8.45;;;6.80;;
8042;SDS011;4064;48.132;11.366;2023-04-03T09:06:37;11.18;;;8.00;;
8042;SDS011;4064;48.132;11.366;2023-04-03T09:09:42;7.10;;;6.47;;
8042;SDS011;4064;48.132;11.366;2023-04-03T09:12:37;7.72;;;6.97;;
8042;SDS011;4064;48.132;11.366;2023-04-03T09:15:24;6.60;;;6.05;;
8042;SDS011;4064;48.132;11.366;2023-04-03T09:17:59;6.40;;;5.80;;
8042;SDS011;4064;48.132;11.366;2023-04-03T09:23:30;6.40;;;5.80;;
8042;SDS011;4064;48.132;11.366;2023-04-03T09:26:21;5.95;;;5.35;;
8042;SDS011;4064;48.132;11.366;2023-04-03T09:28:50;6.93;;;6.22;;
8042;SDS011;4064;48.132;11.366;2023-04-03T09:31:24;7.47;;;6.87;;
8042;SDS011;4064;48.132;11.366;2023-04-03T09:34:03;7.00;;;6.40;;
8042;SDS011;4064;48.132;11.366;2023-04-03T09:39:22;6.47;;;5.85;;
8042;SDS011;4064;48.132;11.366;2023-04-03T09:44:33;6.20;;;5.70;;
8042;SDS011;4064;48.132;11.366;2023-04-03T09:47:35;9.57;;;5.93;;
8042;SDS011;4064;48.132;11.366;2023-04-03T09:52:41;6.90;;;5.37;;
8042;SDS011;4064;48.132;11.366;2023-04-03T09:55:20;8.33;;;5.90;;
8042;SDS011;4064;48.132;11.366;2023-04-03T09:57:55;5.90;;;5.40;;
8042;SDS011;4064;48.132;11.366;2023-04-03T10:00:25;9.80;;;5.20;;
8042;SDS011;4064;48.132;11.366;2023-04-03T10:03:02;7.70;;;5.67;;
8042;SDS011;4064;48.132;11.366;2023-04-03T10:10:42;5.33;;;4.83;;
8042;SDS011;4064;48.132;11.366;2023-04-03T10:13:20;8.67;;;5.13;;
8042;SDS011;4064;48.132;11.366;2023-04-03T10:18:41;6.33;;;5.83;;
8042;SDS011;4064;48.132;11.366;2023-04-03T10:24:17;7.57;;;5.60;;
8042;SDS011;4064;48.132;11.366;2023-04-03T10:46:16;8.32;;;7.10;;
8042;SDS011;4064;48.132;11.366;2023-04-03T10:49:05;6.35;;;5.75;;
8042;SDS011;4064;48.132;11.366;2023-04-03T10:52:17;6.75;;;6.10;;
8042;SDS011;4064;48.132;11.366;2023-04-03T10:54:42;6.22;;;5.72;;
8042;SDS011;4064;48.132;11.366;2023-04-03T10:57:15;7.10;;;6.50;;
8042;SDS011;4064;48.132;11.366;2023-04-03T10:59:51;7.80;;;7.20;;
8042;SDS011;4064;48.132;11.366;2023-04-03T11:02:59;6.88;;;6.03;;
8042;SDS011;4064;48.132;11.366;2023-04-03T11:05:39;6.05;;;5.45;;
8042;SDS011;4064;48.132;11.366;2023-04-03T11:08:24;6.55;;;5.85;;
8042;SDS011;4064;48.132;11.366;2023-04-03T11:10:59;6.28;;;5.75;;
8042;SDS011;4064;48.132;11.366;2023-04-03T11:13:35;5.70;;;5.20;;
8042;SDS011;4064;48.132;11.366;2023-04-03T11:16:08;7.70;;;5.72;;
8042;SDS011;4064;48.132;11.366;2023-04-03T11:21:27;7.15;;;4.90;;
8042;SDS011;4064;48.132;11.366;2023-04-03T11:24:00;6.88;;;4.38;;
8042;SDS011;4064;48.132;11.366;2023-04-03T11:26:35;5.05;;;4.55;;
8042;SDS011;4064;48.132;11.366;2023-04-03T11:29:18;5.53;;;3.60;;
8042;SDS011;4064;48.132;11.366;2023-04-03T11:32:05;6.93;;;4.27;;
8042;SDS011;4064;48.132;11.366;2023-04-03T11:34:55;4.97;;;3.93;;
8042;SDS011;4064;48.132;11.366;2023-04-03T11:42:41;4.97;;;3.80;;
8042;SDS011;4064;48.132;11.366;2023-04-03T11:45:25;4.20;;;3.85;;
8042;SDS011;4064;48.132;11.366;2023-04-03T11:48:00;5.10;;;3.40;;
8042;SDS011;4064;48.132;11.366;2023-04-03T11:50:46;5.10;;;3.90;;
8042;SDS011;4064;48.132;11.366;2023-04-03T11:55:42;4.40;;;3.77;;
8042;SDS011;4064;48.132;11.366;2023-04-03T11:58:14;5.93;;;4.20;;
8042;SDS011;4064;48.132;11.366;2023-04-03T12:05:56;4.80;;;3.70;;
8042;SDS011;4064;48.132;11.366;2023-04-03T12:08:26;7.57;;;4.33;;
8042;SDS011;4064;48.132;11.366;2023-04-03T12:11:35;4.20;;;3.40;;
8042;SDS011;4064;48.132;11.366;2023-04-03T12:16:24;8.53;;;3.43;;
8042;SDS011;4064;48.132;11.366;2023-04-03T12:24:29;4.43;;;2.80;;
8042;SDS011;4064;48.132;11.366;2023-04-03T12:40:25;7.20;;;5.07;;
8042;SDS011;4064;48.132;11.366;2023-04-03T12:45:48;10.30;;;4.17;;
8042;SDS011;4064;48.132;11.366;2023-04-03T12:48:26;3.30;;;3.00;;
8042;SDS011;4064;48.132;11.366;2023-04-03T12:50:56;5.77;;;3.00;;
8042;SDS011;4064;48.132;11.366;2023-04-03T12:53:28;2.70;;;2.50;;
8042;SDS011;4064;48.132;11.366;2023-04-03T12:58:43;2.20;;;2.00;;
8042;SDS011;4064;48.132;11.366;2023-04-03T13:01:11;2.70;;;2.47;;
8042;SDS011;4064;48.132;11.366;2023-04-03T13:03:40;3.47;;;2.83;;
8042;SDS011;4064;48.132;11.366;2023-04-03T13:06:11;3.17;;;2.70;;
8042;SDS011;4064;48.132;11.366;2023-04-03T13:08:53;3.83;;;3.03;;
8042;SDS011;4064;48.132;11.366;2023-04-03T13:11:33;6.53;;;2.87;;
8042;SDS011;4064;48.132;11.366;2023-04-03T13:14:04;2.60;;;2.40;;
8042;SDS011;4064;48.132;11.366;2023-04-03T13:16:40;3.30;;;2.90;;
8042;SDS011;4064;48.132;11.366;2023-04-03T13:19:06;5.13;;;2.67;;
8042;SDS011;4064;48.132;11.366;2023-04-03T13:21:42;3.70;;;2.60;;
8042;SDS011;4064;48.132;11.366;2023-04-03T13:24:09;3.17;;;2.87;;
8042;SDS011;4064;48.132;11.366;2023-04-03T13:26:36;3.80;;;2.70;;
8042;SDS011;4064;48.132;11.366;2023-04-03T13:29:04;5.00;;;2.90;;
8042;SDS011;4064;48.132;11.366;2023-04-03T13:31:33;2.90;;;2.60;;
8042;SDS011;4064;48.132;11.366;2023-04-03T13:34:17;3.50;;;2.37;;
8042;SDS011;4064;48.132;11.366;2023-04-03T13:36:46;3.70;;;2.30;;
8042;SDS011;4064;48.132;11.366;2023-04-03T13:39:28;5.30;;;3.33;;
8042;SDS011;4064;48.132;11.366;2023-04-03T13:42:13;3.00;;;2.70;;
8042;SDS011;4064;48.132;11.366;2023-04-03T13:44:42;2.70;;;2.50;;
8042;SDS011;4064;48.132;11.366;2023-04-03T13:49:38;2.33;;;2.13;;
8042;SDS011;4064;48.132;11.366;2023-04-03T13:54:53;2.97;;;2.67;;
8042;SDS011;4064;48.132;11.366;2023-04-03T13:57:21;4.17;;;3.23;;
8042;SDS011;4064;48.132;11.366;2023-04-03T13:59:47;4.30;;;3.27;;
8042;SDS011;4064;48.132;11.366;2023-04-03T14:04:49;5.40;;;4.90;;
8042;SDS011;4064;48.132;11.366;2023-04-03T14:07:21;4.60;;;2.83;;
8042;SDS011;4064;48.132;11.366;2023-04-03T14:09:47;2.90;;;2.57;;
8042;SDS011;4064;48.132;11.366;2023-04-03T14:15:07;2.73;;;2.53;;
8042;SDS011;4064;48.132;11.366;2023-04-03T14:17:49;3.83;;;3.43;;
8042;SDS011;4064;48.132;11.366;2023-04-03T14:20:20;3.10;;;2.73;;
8042;SDS011;4064;48.132;11.366;2023-04-03T14:22:47;4.03;;;2.70;;
8042;SDS011;4064;48.132;11.366;2023-04-03T14:25:15;4.97;;;2.90;;
8042;SDS011;4064;48.132;11.366;2023-04-03T14:27:43;4.87;;;3.23;;
8042;SDS011;4064;48.132;11.366;2023-04-03T14:30:13;3.47;;;2.60;;
8042;SDS011;4064;48.132;11.366;2023-04-03T14:32:45;3.87;;;2.87;;
8042;SDS011;4064;48.132;11.366;2023-04-03T14:35:12;4.43;;;3.07;;
8042;SDS011;4064;48.132;11.366;2023-04-03T14:37:39;3.73;;;3.30;;
8042;SDS011;4064;48.132;11.366;2023-04-03T14:40:07;2.63;;;2.37;;
8042;SDS011;4064;48.132;11.366;2023-04-03T14:42:35;4.97;;;2.50;;
8042;SDS011;4064;48.132;11.366;2023-04-03T14:45:03;4.40;;;2.57;;
8042;SDS011;4064;48.132;11.366;2023-04-03T14:47:33;3.40;;;2.73;;
8042;SDS011;4064;48.132;11.366;2023-04-03T14:50:03;4.47;;;2.40;;
8042;SDS011;4064;48.132;11.366;2023-04-03T14:52:32;2.70;;;2.50;;
8042;SDS011;4064;48.132;11.366;2023-04-03T14:55:00;2.83;;;2.53;;
8042;SDS011;4064;48.132;11.366;2023-04-03T14:57:29;5.30;;;2.87;;
8042;SDS011;4064;48.132;11.366;2023-04-03T14:59:59;2.93;;;2.57;;
8042;SDS011;4064;48.132;11.366;2023-04-03T15:02:28;3.40;;;2.40;;
8042;SDS011;4064;48.132;11.366;2023-04-03T15:05:03;2.90;;;2.60;;
8042;SDS011;4064;48.132;11.366;2023-04-03T15:07:35;4.93;;;2.50;;
8042;SDS011;4064;48.132;11.366;2023-04-03T15:10:25;2.60;;;1.70;;
8042;SDS011;4064;48.132;11.366;2023-04-03T15:12:53;3.20;;;2.13;;
8042;SDS011;4064;48.132;11.366;2023-04-03T15:15:21;2.00;;;1.67;;
8042;SDS011;4064;48.132;11.366;2023-04-03T15:17:51;2.40;;;2.00;;
8042;SDS011;4064;48.132;11.366;2023-04-03T15:20:20;13.93;;;12.60;;
8042;SDS011;4064;48.132;11.366;2023-04-03T15:22:50;18.27;;;10.73;;
8042;SDS011;4064;48.132;11.366;2023-04-03T15:25:17;5.40;;;3.40;;
8042;SDS011;4064;48.132;11.366;2023-04-03T15:27:43;3.47;;;2.10;;
8042;SDS011;4064;48.132;11.366;2023-04-03T15:30:13;3.83;;;1.90;;
8042;SDS011;4064;48.132;11.366;2023-04-03T15:32:41;2.57;;;2.00;;
8042;SDS011;4064;48.132;11.366;2023-04-03T15:35:06;3.00;;;2.07;;
8042;SDS011;4064;48.132;11.366;2023-04-03T15:37:33;5.77;;;2.20;;
8042;SDS011;4064;48.132;11.366;2023-04-03T15:39:59;2.10;;;1.83;;
8042;SDS011;4064;48.132;11.366;2023-04-03T15:42:25;3.80;;;1.37;;
8042;SDS011;4064;48.132;11.366;2023-04-03T15:44:51;2.43;;;2.17;;
8042;SDS011;4064;48.132;11.366;2023-04-03T15:47:17;2.30;;;2.07;;
8042;SDS011;4064;48.132;11.366;2023-04-03T15:49:43;3.30;;;1.80;;
8042;SDS011;4064;48.132;11.366;2023-04-03T15:52:10;3.00;;;1.93;;
8042;SDS011;4064;48.132;11.366;2023-04-03T15:54:35;2.30;;;2.07;;
8042;SDS011;4064;48.132;11.366;2023-04-03T15:57:01;2.67;;;1.97;;
8042;SDS011;4064;48.132;11.366;2023-04-03T15:59:27;2.47;;;1.90;;
8042;SDS011;4064;48.132;11.366;2023-04-03T16:01:55;3.47;;;2.30;;
8042;SDS011;4064;48.132;11.366;2023-04-03T16:04:22;3.97;;;2.53;;
8042;SDS011;4064;48.132;11.366;2023-04-03T16:06:48;3.87;;;2.40;;
8042;SDS011;4064;48.132;11.366;2023-04-03T16:09:14;2.30;;;1.40;;
8042;SDS011;4064;48.132;11.366;2023-04-03T16:11:40;2.90;;;1.80;;
8042;SDS011;4064;48.132;11.366;2023-04-03T16:14:07;3.60;;;2.10;;
8042;SDS011;4064;48.132;11.366;2023-04-03T16:16:33;3.87;;;2.80;;
8042;SDS011;4064;48.132;11.366;2023-04-03T16:18:59;2.43;;;2.13;;
8042;SDS011;4064;48.132;11.366;2023-04-03T16:21:26;4.33;;;2.27;;
8042;SDS011;4064;48.132;11.366;2023-04-03T16:23:52;2.50;;;1.87;;
8042;SDS011;4064;48.132;11.366;2023-04-03T16:26:18;3.83;;;1.93;;
8042;SDS011;4064;48.132;11.366;2023-04-03T16:28:45;3.50;;;2.00;;
8042;SDS011;4064;48.132;11.366;2023-04-03T16:31:11;2.53;;;2.30;;
8042;SDS011;4064;48.132;11.366;2023-04-03T16:33:36;2.50;;;1.90;;
8042;SDS011;4064;48.132;11.366;2023-04-03T16:36:03;3.90;;;2.40;;
8042;SDS011;4064;48.132;11.366;2023-04-03T16:38:30;3.17;;;2.00;;
8042;SDS011;4064;48.132;11.366;2023-04-03T16:40:56;3.47;;;2.10;;
8042;SDS011;4064;48.132;11.366;2023-04-03T16:43:24;2.93;;;1.53;;
8042;SDS011;4064;48.132;11.366;2023-04-03T16:45:50;2.97;;;2.30;;
8042;SDS011;4064;48.132;11.366;2023-04-03T16:48:16;8.20;;;2.90;;
8042;SDS011;4064;48.132;11.366;2023-04-03T16:50:44;3.20;;;2.43;;
8042;SDS011;4064;48.132;11.366;2023-04-03T16:53:13;3.75;;;3.28;;
8042;SDS011;4064;48.132;11.366;2023-04-03T16:55:38;5.27;;;2.90;;
8042;SDS011;4064;48.132;11.366;2023-04-03T16:58:05;4.17;;;2.30;;
8042;SDS011;4064;48.132;11.366;2023-04-03T17:00:31;2.53;;;2.33;;
8042;SDS011;4064;48.132;11.366;2023-04-03T17:02:59;4.60;;;2.60;;
8042;SDS011;4064;48.132;11.366;2023-04-03T17:05:25;2.67;;;2.47;;
8042;SDS011;4064;48.132;11.366;2023-04-03T17:07:51;3.33;;;2.93;;
8042;SDS011;4064;48.132;11.366;2023-04-03T17:10:17;4.50;;;2.90;;
8042;SDS011;4064;48.132;11.366;2023-04-03T17:12:43;4.00;;;3.20;;